Main page
METAR-TAF:

METAR-TAF

Airports :

Rarotonga International Airport

Rarotonga, Cook Islands

latitude: 21-12S, longitude: 159-49W, elevation: 7 m

Current weather observation

The report was made 38 minutes ago, at 01:30 UTC
Wind 8 kt from the East
Temperature 27°C
Humidity 70%
Pressure 1011 hPa
Visibility 10 km or more

METAR: NCRG 230130Z AUTO 10008KT 9999 SCT033/// 27/21 Q1011

Time: 16:08 (02:08 UTC)

Forecast

The report was made 2 hours and 49 minutes ago, at 23:19 UTC
Forecast valid from 23 at 00 UTC to 23 at 24 UTC
Wind 10 kt from the East/Southeast
Visibility 10 km or more
Scattered clouds at a height of 3000 ft

TAF: NCRG 222319Z 2300/2324 12010KT 9999 SCT030

Weather observations and forecasts of more than 4000 airports (METAR and TAF reports).

The available stations are represented by yellow and red dots on the map.

Hover mouse over dot to see the name of the station.

Then click to see weather observations and forecasts.

To change the map : click on the green buttons with a black cross to zoom in, on the green button with a dash to zoom out, or on the green arrows for adjacent maps.


METAR-TAF: